24 | 07 | 2016
Hauptmenü
Navigation
Login Form

jNews Module
Bitte registrieren Sie sich, bevor Sie eine Liste abonnieren.
No account yet? Register
Letzte Beiträge
Meistgelesen
Metar Bottom
EDDB
EDDB 241620Z 12005KT 080V160 CAVOK 27/14 Q1017 NOSIG
Termine
Mi Aug 10 @19:30 -
Clubabend
Mi Sep 14 @19:30 -
Clubabend
Metar
EDDW
EDDW 241620Z 29008KT 260V330 9999 FEW044CB BKN300 27/16 Q1018 NOSIG
TAF
EDDW
TAF TAF EDDW 241100Z 2412/2512 33005KT 9999 FEW045
TEMPO 2414/2418 TSRA SCT040CB
BECMG 2421/2423 26004KT PROB30
TEMPO 2501/2507 2500 BR PROB30
TEMPO 2508/2511 SHRA BKN020CB PROB30
TEMPO 2508/2511 TSRA
NOTAM
Data not avlb.
(due to wrong input of icao-codes or 'allow_url_fopen' is OFF [1] and cURL not enabled [1] on this server!)
Visitors Counter
479257
Diese WocheDiese Woche4055
Diesen MonatDiesen Monat18348
Metar Test1